createdAt,value
2023-04-15T00:01:11.989Z,58.01
2023-04-15T00:03:39.789Z,57.94
2023-04-15T00:06:07.083Z,58.02
2023-04-15T00:08:34.380Z,57.95
2023-04-15T00:11:03.277Z,57.91
2023-04-15T00:13:30.582Z,57.94
2023-04-15T00:15:57.546Z,57.90
2023-04-15T00:18:25.298Z,57.86
2023-04-15T00:20:52.761Z,57.86
2023-04-15T00:23:19.778Z,57.80
2023-04-15T00:25:47.106Z,57.77
2023-04-15T00:28:14.406Z,57.82
2023-04-15T00:30:42.994Z,57.72
2023-04-15T00:33:10.382Z,57.84
2023-04-15T00:35:37.716Z,57.77
2023-04-15T00:38:06.204Z,57.67
2023-04-15T00:40:33.563Z,57.63
2023-04-15T00:43:00.759Z,57.57
2023-04-15T00:45:28.444Z,57.65
2023-04-15T00:47:56.100Z,57.49
2023-04-15T00:50:23.080Z,57.62
2023-04-15T00:52:49.935Z,57.56
2023-04-15T00:55:16.993Z,57.55
2023-04-15T00:57:44.882Z,57.51
2023-04-15T01:00:12.256Z,57.43
2023-04-15T01:02:39.652Z,57.65
2023-04-15T01:05:07.890Z,57.62
2023-04-15T01:07:34.838Z,57.68
2023-04-15T01:10:04.267Z,57.55
2023-04-15T01:12:33.349Z,57.68
2023-04-15T01:15:00.520Z,57.66
2023-04-15T01:17:27.528Z,57.61
2023-04-15T01:19:58.141Z,57.52
2023-04-15T01:22:26.910Z,57.54
2023-04-15T01:25:10.057Z,57.59
2023-04-15T01:27:40.186Z,57.64
2023-04-15T01:30:08.819Z,57.74
2023-04-15T01:32:35.916Z,57.76
2023-04-15T01:35:03.058Z,57.73
2023-04-15T01:37:30.319Z,57.82
2023-04-15T01:39:58.253Z,57.80
2023-04-15T01:42:25.257Z,57.83
2023-04-15T01:44:52.329Z,57.74
2023-04-15T01:47:19.455Z,57.79
2023-04-15T01:49:47.699Z,57.81
2023-04-15T01:52:14.594Z,57.87
2023-04-15T01:54:41.854Z,57.87
2023-04-15T01:57:08.719Z,57.82
2023-04-15T01:59:36.472Z,57.78
2023-04-15T02:02:03.461Z,57.88
2023-04-15T02:04:30.568Z,57.90
2023-04-15T02:07:00.880Z,57.97
2023-04-15T02:09:28.093Z,57.89
2023-04-15T02:11:54.940Z,57.83
2023-04-15T02:14:22.313Z,57.88
2023-04-15T02:16:49.293Z,57.96
2023-04-15T02:19:16.587Z,57.96
2023-04-15T02:21:43.574Z,57.86
2023-04-15T02:24:12.332Z,58.00
2023-04-15T02:26:41.300Z,57.92
2023-04-15T02:29:08.320Z,58.00
2023-04-15T02:31:38.252Z,57.94
2023-04-15T02:34:05.242Z,58.10
2023-04-15T02:36:32.174Z,58.14
2023-04-15T02:38:59.454Z,58.11
2023-04-15T02:41:28.627Z,58.03
2023-04-15T02:43:55.978Z,58.14
2023-04-15T02:46:23.314Z,58.27
2023-04-15T02:48:50.705Z,58.23
2023-04-15T02:51:22.902Z,58.21
2023-04-15T02:53:51.077Z,58.31
2023-04-15T02:56:20.060Z,58.21
2023-04-15T02:58:47.457Z,58.28
2023-04-15T03:01:14.970Z,58.30
2023-04-15T03:03:42.466Z,58.28
2023-04-15T03:06:09.586Z,58.26
2023-04-15T03:08:37.276Z,58.19
2023-04-15T03:11:05.418Z,58.38
2023-04-15T03:13:33.317Z,58.29
2023-04-15T03:16:04.286Z,58.35
2023-04-15T03:18:31.936Z,58.36
2023-04-15T03:21:01.560Z,58.31
2023-04-15T03:23:31.668Z,58.36
2023-04-15T03:26:00.122Z,58.38
2023-04-15T03:28:29.777Z,58.48
2023-04-15T03:31:00.443Z,58.56
2023-04-15T03:33:27.513Z,58.58
2023-04-15T03:35:54.608Z,58.47
2023-04-15T03:38:21.754Z,58.50
2023-04-15T03:40:48.774Z,58.53
2023-04-15T03:43:15.831Z,58.56
2023-04-15T03:45:42.727Z,58.63
2023-04-15T03:48:17.068Z,58.61
2023-04-15T03:50:44.508Z,58.55
2023-04-15T03:53:11.420Z,58.70
2023-04-15T03:55:38.257Z,58.63
2023-04-15T03:58:05.339Z,58.63
2023-04-15T04:00:32.308Z,58.71
2023-04-15T04:02:59.472Z,58.59
2023-04-15T04:05:26.440Z,58.67
2023-04-15T04:07:53.311Z,58.55
2023-04-15T04:10:20.289Z,58.70
2023-04-15T04:12:47.232Z,58.76
2023-04-15T04:15:14.503Z,58.75
2023-04-15T04:17:41.703Z,58.60
2023-04-15T04:20:09.519Z,58.71
2023-04-15T04:22:40.345Z,58.68
2023-04-15T04:25:08.937Z,58.77
2023-04-15T04:27:36.512Z,58.88
2023-04-15T04:30:03.866Z,58.83
2023-04-15T04:32:30.955Z,58.91
2023-04-15T04:34:57.858Z,58.80
2023-04-15T04:37:25.239Z,58.90
2023-04-15T04:39:52.247Z,58.96
2023-04-15T04:42:19.272Z,59.00
2023-04-15T04:44:46.728Z,58.92
2023-04-15T04:47:14.156Z,58.80
2023-04-15T04:49:41.362Z,58.86
2023-04-15T04:52:09.265Z,58.93
2023-04-15T04:54:36.474Z,58.99
2023-04-15T04:57:03.453Z,59.11
2023-04-15T04:59:30.449Z,59.00
2023-04-15T05:01:57.941Z,59.03
2023-04-15T05:04:26.595Z,58.95
2023-04-15T05:06:53.504Z,59.07
2023-04-15T05:09:20.451Z,59.23
2023-04-15T05:11:47.300Z,58.94
2023-04-15T05:14:14.196Z,58.75
2023-04-15T05:16:41.113Z,58.62
2023-04-15T05:19:08.425Z,58.27
2023-04-15T05:21:36.641Z,58.07
2023-04-15T05:24:05.843Z,57.98
2023-04-15T05:26:32.811Z,57.91
2023-04-15T05:28:59.880Z,57.74
2023-04-15T05:31:27.278Z,57.57
2023-04-15T05:33:54.345Z,57.58
2023-04-15T05:36:21.508Z,57.53
2023-04-15T05:38:48.385Z,57.65
2023-04-15T05:41:18.357Z,57.45
2023-04-15T05:43:46.628Z,57.58
2023-04-15T05:46:13.632Z,57.54
2023-04-15T05:48:40.612Z,57.39
2023-04-15T05:51:07.664Z,57.38
2023-04-15T05:53:34.503Z,57.40
2023-04-15T05:56:01.762Z,57.42
2023-04-15T05:58:28.736Z,57.29
2023-04-15T06:00:55.954Z,57.22
2023-04-15T06:03:23.204Z,57.35
2023-04-15T06:05:50.353Z,57.19
2023-04-15T06:08:17.274Z,57.25
2023-04-15T06:10:44.248Z,57.21
2023-04-15T06:13:11.192Z,57.21
2023-04-15T06:15:38.144Z,57.17
2023-04-15T06:18:05.573Z,57.13
2023-04-15T06:20:32.847Z,57.19
2023-04-15T06:22:59.802Z,57.10
2023-04-15T06:25:27.045Z,57.07
2023-04-15T06:27:53.985Z,57.33
2023-04-15T06:30:22.322Z,57.12
2023-04-15T06:32:51.198Z,57.15
2023-04-15T06:35:18.203Z,57.02
2023-04-15T06:37:45.067Z,57.14
2023-04-15T06:40:12.683Z,56.99
2023-04-15T06:42:39.755Z,57.05
2023-04-15T06:45:07.414Z,57.04
2023-04-15T06:47:34.630Z,57.07
2023-04-15T06:50:02.147Z,56.95
2023-04-15T06:52:30.265Z,56.99
2023-04-15T06:55:00.011Z,56.92
2023-04-15T06:57:29.705Z,56.68
2023-04-15T06:59:58.465Z,56.84
2023-04-15T07:02:28.278Z,56.72
2023-04-15T07:04:58.004Z,56.82
2023-04-15T07:07:27.209Z,56.67
2023-04-15T07:09:56.210Z,56.73
2023-04-15T07:12:25.289Z,56.61
2023-04-15T07:14:53.318Z,56.69
2023-04-15T07:17:23.508Z,56.51
2023-04-15T07:19:52.630Z,56.44
2023-04-15T07:22:21.651Z,56.59
2023-04-15T07:24:50.604Z,56.30
2023-04-15T07:27:19.441Z,56.48
2023-04-15T07:29:48.040Z,56.37
2023-04-15T07:32:17.280Z,56.38
2023-04-15T07:34:48.746Z,56.36
2023-04-15T07:37:18.808Z,56.46
2023-04-15T07:39:48.376Z,56.25
2023-04-15T07:42:17.136Z,56.21
2023-04-15T07:44:46.159Z,56.33
2023-04-15T07:47:14.880Z,56.25
2023-04-15T07:49:44.929Z,56.27
2023-04-15T07:52:13.052Z,56.19
2023-04-15T07:54:44.457Z,56.12
2023-04-15T07:57:13.225Z,55.93
2023-04-15T07:59:42.902Z,55.96
2023-04-15T08:02:12.717Z,55.82
2023-04-15T08:04:42.094Z,55.82
2023-04-15T08:07:11.248Z,55.64
2023-04-15T08:09:40.064Z,55.79
2023-04-15T08:12:10.244Z,55.80
2023-04-15T08:14:39.653Z,55.59
2023-04-15T08:17:08.183Z,55.66
2023-04-15T08:19:37.414Z,55.69
2023-04-15T08:22:06.723Z,55.63
2023-04-15T08:24:44.395Z,55.67
2023-04-15T08:27:13.241Z,55.73
2023-04-15T08:29:46.974Z,55.59
2023-04-15T08:32:14.133Z,55.61
2023-04-15T08:34:41.224Z,55.58
2023-04-15T08:37:08.488Z,55.55
2023-04-15T08:39:35.525Z,55.49
2023-04-15T08:42:05.854Z,55.55
2023-04-15T08:44:37.211Z,55.59
2023-04-15T08:47:07.792Z,55.66
2023-04-15T08:49:39.456Z,55.55
2023-04-15T08:52:06.865Z,55.43
2023-04-15T08:54:34.602Z,55.33
2023-04-15T08:57:02.776Z,55.42
2023-04-15T08:59:33.002Z,55.39
2023-04-15T09:02:00.247Z,55.35
2023-04-15T09:04:28.943Z,55.55
2023-04-15T09:06:55.884Z,55.56
2023-04-15T09:09:23.038Z,55.65
2023-04-15T09:11:51.818Z,55.59
2023-04-15T09:14:18.681Z,55.53
2023-04-15T09:17:03.441Z,55.42
2023-04-15T09:19:33.823Z,55.39
2023-04-15T09:22:01.617Z,55.43
2023-04-15T09:24:40.136Z,55.48
2023-04-15T09:27:07.502Z,55.54
2023-04-15T09:29:34.871Z,55.23
2023-04-15T09:32:13.163Z,55.34
2023-04-15T09:34:40.093Z,55.34
2023-04-15T09:37:08.155Z,55.51
2023-04-15T09:39:52.322Z,55.39
2023-04-15T09:42:27.051Z,55.38
2023-04-15T09:44:54.221Z,55.41
2023-04-15T09:47:29.236Z,55.44
2023-04-15T09:50:00.731Z,55.52
2023-04-15T09:52:28.933Z,55.49
2023-04-15T09:54:59.253Z,55.60
2023-04-15T09:57:34.893Z,55.46
2023-04-15T10:00:02.136Z,55.39
2023-04-15T10:02:31.319Z,55.40
2023-04-15T10:04:59.868Z,55.45
2023-04-15T10:07:27.628Z,55.40
2023-04-15T10:09:55.285Z,55.47
2023-04-15T10:12:22.954Z,55.39
2023-04-15T10:14:57.175Z,55.20
2023-04-15T10:17:34.395Z,55.33
2023-04-15T10:20:04.036Z,55.39
2023-04-15T10:22:32.342Z,55.28
2023-04-15T10:25:02.866Z,55.45
2023-04-15T10:27:30.638Z,55.41
2023-04-15T10:29:57.750Z,55.32
2023-04-15T10:32:25.917Z,55.49
2023-04-15T10:34:54.848Z,55.45
2023-04-15T10:37:33.981Z,55.37
2023-04-15T10:40:01.124Z,55.43
2023-04-15T10:42:35.164Z,55.35
2023-04-15T10:45:02.088Z,55.42
2023-04-15T10:47:29.144Z,55.46
2023-04-15T10:50:00.550Z,55.39
2023-04-15T10:52:29.203Z,55.33
2023-04-15T10:55:26.598Z,55.36
2023-04-15T10:57:56.363Z,55.38
2023-04-15T11:00:29.105Z,55.25
2023-04-15T11:02:58.640Z,55.29
2023-04-15T11:05:52.095Z,55.18
2023-04-15T11:08:19.524Z,55.10
2023-04-15T11:10:46.416Z,55.24
2023-04-15T11:13:18.713Z,55.17
2023-04-15T11:15:47.215Z,55.07
2023-04-15T11:18:14.073Z,55.25
2023-04-15T11:21:11.044Z,55.14
2023-04-15T11:23:40.006Z,55.06
2023-04-15T11:26:15.635Z,55.14
2023-04-15T11:28:46.440Z,54.99
2023-04-15T11:31:18.046Z,54.96
2023-04-15T11:33:56.835Z,55.08
2023-04-15T11:36:29.626Z,55.09
2023-04-15T11:38:59.687Z,55.10
2023-04-15T11:41:26.612Z,55.18
2023-04-15T11:43:53.714Z,55.11
2023-04-15T11:46:22.072Z,55.27
2023-04-15T11:48:49.027Z,55.16
2023-04-15T11:51:16.220Z,55.25
2023-04-15T11:53:46.193Z,55.16
2023-04-15T11:56:21.692Z,55.32
2023-04-15T11:58:51.998Z,55.27
2023-04-15T12:01:19.098Z,55.15
2023-04-15T12:03:47.582Z,55.21
2023-04-15T12:06:22.794Z,55.32
2023-04-15T12:08:55.954Z,55.34
2023-04-15T12:11:39.372Z,55.23
2023-04-15T12:14:28.724Z,55.14
2023-04-15T12:16:58.901Z,55.08
2023-04-15T12:19:29.098Z,55.29
2023-04-15T12:22:16.447Z,55.14
2023-04-15T12:24:47.169Z,55.09
2023-04-15T12:27:15.696Z,55.09
2023-04-15T12:29:43.425Z,55.02
2023-04-15T12:32:11.952Z,55.18
2023-04-15T12:34:41.509Z,55.10
2023-04-15T12:37:10.458Z,55.01
2023-04-15T12:39:39.926Z,55.02
2023-04-15T12:42:07.792Z,55.06
2023-04-15T12:44:35.851Z,55.10
2023-04-15T12:47:03.371Z,55.02
2023-04-15T12:49:33.020Z,55.08
2023-04-15T12:52:01.386Z,55.11
2023-04-15T12:54:29.407Z,55.02
2023-04-15T12:56:57.051Z,54.91
2023-04-15T12:59:24.617Z,54.98
2023-04-15T13:01:53.549Z,55.00
2023-04-15T13:04:22.079Z,54.94
2023-04-15T13:06:49.625Z,55.04
2023-04-15T13:09:16.747Z,55.00
2023-04-15T13:11:44.200Z,54.98
2023-04-15T13:14:13.947Z,55.03
2023-04-15T13:16:41.681Z,54.99
2023-04-15T13:19:08.792Z,54.84
2023-04-15T13:21:36.489Z,54.90
2023-04-15T13:24:04.536Z,54.85
2023-04-15T13:26:32.142Z,54.90
2023-04-15T13:29:00.874Z,54.99
2023-04-15T13:31:28.162Z,55.01
2023-04-15T13:33:55.242Z,54.73
2023-04-15T13:36:22.601Z,54.75
2023-04-15T13:38:51.381Z,54.62
2023-04-15T13:41:18.722Z,54.93
2023-04-15T13:43:45.803Z,54.84
2023-04-15T13:46:13.007Z,54.89
2023-04-15T13:48:40.164Z,54.85
2023-04-15T13:51:07.087Z,54.65
2023-04-15T13:53:38.251Z,54.75
2023-04-15T13:56:09.580Z,54.79
2023-04-15T13:58:41.123Z,54.79
2023-04-15T14:01:08.249Z,54.72
2023-04-15T14:03:36.565Z,54.58
2023-04-15T14:06:04.359Z,54.76
2023-04-15T14:08:31.813Z,54.55
2023-04-15T14:10:58.848Z,54.58
2023-04-15T14:13:25.757Z,54.57
2023-04-15T14:15:53.085Z,54.61
2023-04-15T14:18:20.195Z,54.46
2023-04-15T14:20:47.262Z,54.37
2023-04-15T14:23:14.311Z,54.26
2023-04-15T14:25:41.290Z,54.23
2023-04-15T14:28:08.168Z,54.44
2023-04-15T14:30:35.447Z,54.61
2023-04-15T14:33:02.780Z,54.86
2023-04-15T14:35:29.880Z,55.02
2023-04-15T14:37:57.198Z,54.97
2023-04-15T14:40:24.613Z,55.15
2023-04-15T14:42:51.605Z,55.25
2023-04-15T14:45:18.640Z,55.24
2023-04-15T14:47:45.633Z,55.20
2023-04-15T14:50:12.544Z,55.31
2023-04-15T14:52:39.761Z,55.34
2023-04-15T14:55:08.015Z,55.23
2023-04-15T14:57:34.969Z,55.28
2023-04-15T15:00:02.303Z,54.97
2023-04-15T15:02:38.398Z,55.01
2023-04-15T15:05:06.853Z,54.96
2023-04-15T15:07:33.986Z,54.92
2023-04-15T15:10:01.004Z,55.10
2023-04-15T15:12:27.886Z,55.06
2023-04-15T15:14:56.066Z,55.18
2023-04-15T15:17:23.057Z,54.82
2023-04-15T15:19:50.083Z,54.99
2023-04-15T15:22:18.884Z,55.00
2023-04-15T15:24:47.139Z,54.93
2023-04-15T15:27:14.010Z,54.95
2023-04-15T15:29:41.034Z,54.89
2023-04-15T15:32:08.156Z,55.03
2023-04-15T15:34:35.028Z,54.92
2023-04-15T15:37:02.022Z,55.11
2023-04-15T15:39:29.129Z,55.07
2023-04-15T15:41:56.296Z,55.03
2023-04-15T15:44:23.099Z,55.00
2023-04-15T15:46:51.266Z,55.10
2023-04-15T15:49:20.019Z,54.95
2023-04-15T15:51:46.953Z,55.04
2023-04-15T15:54:13.925Z,55.00
2023-04-15T15:56:42.260Z,55.08
2023-04-15T15:59:09.187Z,55.19
2023-04-15T16:01:36.151Z,55.21
2023-04-15T16:04:03.449Z,55.03
2023-04-15T16:06:33.838Z,55.24
2023-04-15T16:09:02.263Z,55.26
2023-04-15T16:11:29.695Z,55.20
2023-04-15T16:13:56.701Z,55.30
2023-04-15T16:16:24.693Z,55.20
2023-04-15T16:18:51.712Z,55.15
2023-04-15T16:21:20.916Z,55.13
2023-04-15T16:23:48.196Z,55.26
2023-04-15T16:26:15.247Z,55.27
2023-04-15T16:28:42.160Z,55.30
2023-04-15T16:31:11.400Z,55.27
2023-04-15T16:33:38.986Z,55.35
2023-04-15T16:36:06.243Z,55.52
2023-04-15T16:38:33.376Z,55.47
2023-04-15T16:41:01.734Z,55.40
2023-04-15T16:43:29.411Z,55.34
2023-04-15T16:45:56.667Z,55.32
2023-04-15T16:48:24.031Z,55.37
2023-04-15T16:50:50.900Z,55.50
2023-04-15T16:53:18.859Z,55.56
2023-04-15T16:55:46.820Z,55.72
2023-04-15T16:58:14.147Z,55.56
2023-04-15T17:00:42.699Z,55.64
2023-04-15T17:03:10.017Z,55.62
2023-04-15T17:05:38.702Z,55.44
2023-04-15T17:08:06.197Z,55.41
2023-04-15T17:10:33.255Z,55.39
2023-04-15T17:13:00.509Z,55.46
2023-04-15T17:15:27.599Z,55.33
2023-04-15T17:17:54.791Z,55.42
2023-04-15T17:20:21.922Z,55.47
2023-04-15T17:22:49.133Z,55.44
2023-04-15T17:25:16.196Z,55.38
2023-04-15T17:27:43.815Z,55.43
2023-04-15T17:30:11.014Z,55.46
2023-04-15T17:32:40.103Z,55.36
2023-04-15T17:35:07.870Z,55.42
2023-04-15T17:37:35.912Z,55.42
2023-04-15T17:40:04.034Z,55.36
2023-04-15T17:42:31.635Z,55.40
2023-04-15T17:44:58.587Z,55.28
2023-04-15T17:47:25.760Z,55.53
2023-04-15T17:49:52.700Z,55.51
2023-04-15T17:52:19.597Z,55.42
2023-04-15T17:54:47.286Z,55.53
2023-04-15T17:57:14.193Z,55.43
2023-04-15T17:59:45.166Z,55.45
2023-04-15T18:02:12.201Z,55.37
2023-04-15T18:04:40.072Z,55.38
2023-04-15T18:07:07.137Z,55.31
2023-04-15T18:09:34.024Z,55.36
2023-04-15T18:12:02.201Z,55.33
2023-04-15T18:14:34.550Z,55.44
2023-04-15T18:17:03.331Z,55.49
2023-04-15T18:19:31.051Z,55.42
2023-04-15T18:22:00.536Z,55.46
2023-04-15T18:24:28.360Z,55.52
2023-04-15T18:26:55.288Z,55.49
2023-04-15T18:29:22.500Z,55.50
2023-04-15T18:31:49.514Z,55.52
2023-04-15T18:34:16.368Z,55.53
2023-04-15T18:36:43.387Z,55.66
2023-04-15T18:39:10.628Z,55.49
2023-04-15T18:41:37.515Z,55.66
2023-04-15T18:44:04.690Z,55.68
2023-04-15T18:46:31.600Z,55.45
2023-04-15T18:48:58.541Z,55.55
2023-04-15T18:51:26.071Z,55.54
2023-04-15T18:53:52.969Z,55.39
2023-04-15T18:56:19.929Z,55.51
2023-04-15T18:59:08.562Z,55.59
2023-04-15T19:01:34.597Z,55.50
2023-04-15T19:04:07.838Z,55.47
2023-04-15T19:06:34.861Z,55.57
2023-04-15T19:09:02.654Z,55.70
2023-04-15T19:11:29.696Z,55.45
2023-04-15T19:13:56.708Z,55.63
2023-04-15T19:16:23.609Z,55.59
2023-04-15T19:18:50.755Z,55.54
2023-04-15T19:21:17.858Z,55.56
2023-04-15T19:23:44.930Z,55.46
2023-04-15T19:26:12.368Z,55.44
2023-04-15T19:28:39.530Z,55.50
2023-04-15T19:31:06.922Z,55.32
2023-04-15T19:33:34.541Z,55.36
2023-04-15T19:36:04.371Z,55.33
2023-04-15T19:38:33.034Z,55.75
2023-04-15T19:40:59.993Z,55.84
2023-04-15T19:43:27.437Z,55.99
2023-04-15T19:45:55.136Z,56.13
2023-04-15T19:48:24.712Z,56.26
2023-04-15T19:50:51.849Z,56.56
2023-04-15T19:53:18.796Z,56.55
2023-04-15T19:55:47.284Z,56.61
2023-04-15T19:58:14.435Z,56.64
2023-04-15T20:00:45.277Z,56.88
2023-04-15T20:03:12.354Z,56.88
2023-04-15T20:05:39.675Z,56.91
2023-04-15T20:08:07.024Z,57.01
2023-04-15T20:10:34.535Z,57.05
2023-04-15T20:13:01.422Z,57.18
2023-04-15T20:15:28.366Z,57.35
2023-04-15T20:17:55.342Z,57.36
2023-04-15T20:20:22.897Z,57.23
2023-04-15T20:22:49.798Z,57.48
2023-04-15T20:25:16.970Z,57.61
2023-04-15T20:27:44.626Z,57.88
2023-04-15T20:30:12.080Z,57.89
2023-04-15T20:32:39.156Z,57.92
2023-04-15T20:35:07.072Z,57.79
2023-04-15T20:37:34.403Z,57.96
2023-04-15T20:40:02.354Z,57.86
2023-04-15T20:42:34.579Z,58.09
2023-04-15T20:45:02.374Z,57.93
2023-04-15T20:47:29.946Z,57.90
2023-04-15T20:49:57.639Z,57.98
2023-04-15T20:52:24.646Z,57.85
2023-04-15T20:54:51.984Z,57.92
2023-04-15T20:57:20.476Z,57.93
2023-04-15T20:59:47.628Z,57.81
2023-04-15T21:02:14.848Z,57.99
2023-04-15T21:04:42.272Z,57.92
2023-04-15T21:07:10.302Z,58.05
2023-04-15T21:09:41.762Z,58.03
2023-04-15T21:12:10.023Z,58.09
2023-04-15T21:14:37.885Z,58.07
2023-04-15T21:17:10.040Z,58.23
2023-04-15T21:19:39.144Z,58.46
2023-04-15T21:22:07.178Z,58.28
2023-04-15T21:24:34.708Z,58.42
2023-04-15T21:27:02.134Z,58.58
2023-04-15T21:29:31.124Z,58.48
2023-04-15T21:31:58.434Z,58.56
2023-04-15T21:34:25.714Z,58.52
2023-04-15T21:36:52.720Z,58.43
2023-04-15T21:39:20.031Z,58.49
2023-04-15T21:41:48.024Z,58.61
2023-04-15T21:44:15.236Z,58.57
2023-04-15T21:46:45.961Z,58.63
2023-04-15T21:49:13.965Z,58.64
2023-04-15T21:51:41.075Z,58.70
2023-04-15T21:54:08.188Z,58.76
2023-04-15T21:56:35.517Z,58.69
2023-04-15T21:59:02.418Z,58.74
2023-04-15T22:01:29.446Z,58.71
2023-04-15T22:03:56.917Z,58.81
2023-04-15T22:06:24.000Z,58.92
2023-04-15T22:08:56.826Z,58.78
2023-04-15T22:11:30.606Z,58.96
2023-04-15T22:13:58.766Z,58.91
2023-04-15T22:16:26.649Z,58.92
2023-04-15T22:18:54.742Z,59.05
2023-04-15T22:21:21.971Z,59.05
2023-04-15T22:23:49.820Z,59.17
2023-04-15T22:26:16.963Z,59.25
2023-04-15T22:28:43.919Z,59.24
2023-04-15T22:31:10.989Z,59.30
2023-04-15T22:33:38.947Z,59.36
2023-04-15T22:36:06.753Z,59.39
2023-04-15T22:38:33.947Z,59.52
2023-04-15T22:41:00.897Z,59.51
2023-04-15T22:43:27.950Z,59.49
2023-04-15T22:45:55.415Z,59.73
2023-04-15T22:48:23.120Z,59.80
2023-04-15T22:50:50.217Z,59.70
2023-04-15T22:53:18.066Z,59.81
2023-04-15T22:55:52.014Z,59.60
2023-04-15T22:58:18.914Z,59.60
2023-04-15T23:00:46.276Z,59.39
2023-04-15T23:03:13.519Z,59.30
2023-04-15T23:05:41.537Z,59.33
2023-04-15T23:08:09.371Z,59.37
2023-04-15T23:10:36.817Z,59.48
2023-04-15T23:13:03.694Z,59.42
2023-04-15T23:15:31.020Z,59.48
2023-04-15T23:17:58.021Z,59.49
2023-04-15T23:20:25.114Z,59.50
2023-04-15T23:22:52.061Z,59.42
2023-04-15T23:25:22.407Z,59.56
2023-04-15T23:27:49.327Z,59.51
2023-04-15T23:30:16.564Z,59.49
2023-04-15T23:32:43.709Z,59.54
2023-04-15T23:35:10.970Z,59.56
2023-04-15T23:37:37.929Z,59.83
2023-04-15T23:40:05.593Z,59.63
2023-04-15T23:42:32.472Z,59.82
2023-04-15T23:44:59.394Z,59.77
2023-04-15T23:47:26.452Z,59.75
2023-04-15T23:49:53.575Z,59.77
2023-04-15T23:52:20.633Z,59.70
2023-04-15T23:54:47.668Z,59.81
2023-04-15T23:57:14.618Z,59.92
2023-04-15T23:59:41.457Z,59.86
